WEATHER DATA

YESTERDAY
Time Temp. Dewp. Hum. Wind dir Wind speed Wind gust Bar. 1h Prec. 24h Prec.
00:04 10.8 8.9 88 21 0.3 0.8 1023.2 0.1010 0.0000
00:30 10.8 8.9 88 11 0.3 0.8 1023 0.0000 0.0000
01:00 10.7 9 89 0 0.6 1022.9 0.1010 0.1000
01:10 10.7 9 89 15 0.3 0.8 1022.8 0.1010 0.1000
01:14 10.7 9 89 8 0.3 0.8 1022.8 0.1010 0.1000
01:24 10.7 9 89 18 0.3 0.8 1022.7 0.1010 0.1000
01:35 10.7 9.1 90 15 0.6 1.1 1022.7 0.0000 0.1000
02:10 10.7 9.1 90 38 0.3 0.6 1022.4 0.4040 0.5000
02:21 10.7 9.1 90 18 0.3 0.6 1022.4 0.5050 0.6000
02:31 10.7 9.1 90 60 0.3 0.6 1022.3 0.5050 0.6000
02:41 10.7 9.3 91 225 0.3 0.6 1022.1 0.4040 0.6000
02:51 10.6 9.2 91 32 0.3 0.6 1022 0.1010 0.6000
03:01 10.7 9.3 91 90 0.3 0.6 1021.8 0.2020 0.7000
03:11 10.7 9.3 91 232 0.3 0.6 1021.7 0.2020 0.7000
03:21 10.6 9.2 91 45 0.3 0.6 1021.6 0.1010 0.7000
03:41 10.6 9.2 91 45 0.3 0.6 1021.1 0.2020 0.8000
03:51 10.6 9.2 91 161 0.3 1.1 1021 0.3030 0.9000
04:07 10.6 9.2 91 161 0.6 1.1 1020.8 0.3030 1.0000
04:22 10.5 9.3 92 198 0.3 0.8 1020.5 0.2020 1.0000
04:31 10.4 9.2 92 135 0.3 0.8 1020.2 0.3030 1.1000
04:42 10.4 9.2 92 185 0.3 0.8 1019.9 0.2020 1.1000
05:02 10.4 9.2 92 90 0.3 1.1 1019.5 0.2020 1.2000
05:12 10.4 9.2 92 90 0.3 1.1 1019.4 0.2020 1.3000
05:32 10.4 9.2 92 146 0.3 0.8 1019 0.3030 1.4000
05:42 10.4 9.2 92 161 0.3 1.1 1018.9 0.4040 1.5000
05:52 10.4 9.2 92 90 0.3 1.4 1018.6 0.6060 1.8000
06:17 10.4 9.3 93 54 0.3 0.8 1018.4 1.0100 2.3000
06:28 10.3 9.2 93 156 0.3 1.4 1017.9 1.0100 2.4000
06:37 10.3 9.2 93 315 0.3 1.1 1017.9 0.9090 2.8000
07:08 10.4 9.3 93 45 0.6 1.4 1017.7 1.5150 3.6000
07:17 10.4 9.3 93 270 0.3 0.8 1017.6 1.8180 4.2000
07:27 10.4 9.5 94 90 0.3 0.8 1017.4 2.2220 5.1000
07:43 10.4 9.5 94 180 0.3 1.1 1017.1 3.0300 6.1000
07:57 10.5 9.6 94 216 0.3 0.6 1016.9 2.4240 6.7000
08:28 10.7 9.9 95 206 0.3 0.6 1016.4 2.4240 8.2000
08:43 10.7 9.9 95 189 0.3 1.7 1016.3 1.7170 8.8000
09:19 11 10.2 95 161 0.3 0.8 1016.1 1.1110 9.7000
09:48 11.2 10.4 95 135 0.3 1.4 1015.6 1.5150 10.8000
10:04 11.3 10.5 95 90 0.3 1.1 1015.5 2.0200 11.6000
10:13 11.4 10.6 95 135 0.6 1.1 1015.4 2.8280 12.5000
10:23 11.5 10.7 95 45 0.3 1.1 1015.3 3.3330 13.4000
10:34 11.6 10.8 95 90 0.6 1.4 1015.1 3.6360 13.9000
10:44 11.7 10.9 95 180 0.3 0.8 1014.9 3.6360 14.4000
10:59 11.8 11 95 45 0.3 1.1 1014.6 3.3330 14.5000
11:09 11.9 11.1 95 90 0.3 0.8 1014.5 1.5150 14.6000
11:28 12.1 11.3 95 30 0.3 0.6 1014.1 0.4040 14.6000
11:39 12.2 11.4 95 239 0.3 0.6 1013.9 0.1010 14.6000
11:59 12.4 11.6 95 168 0.3 0.8 1013.5 0.2020 14.7000
12:09 12.4 11.6 95 195 0.3 1.1 1013.3 0.1010 14.7000
12:19 12.4 11.6 95 182 0.6 1.1 1013.1 0.1010 14.7000
12:29 12.5 11.7 95 197 0.6 1.4 1012.9 0.1010 14.7000
12:39 12.7 11.9 95 192 0.6 1.1 1012.6 0.0000 14.7000
12:49 12.8 12 95 4 0.6 1.9 1012.2 0.0000 14.7000
12:59 13 12.4 96 16 0.6 2.5 1012 0.0000 14.7000
13:14 14.1 14.1 100 315 0.8 2.8 1011.6 0.0000 14.7000
13:25 15.1 15.1 100 354 1.1 3.1 1011.3 0.0000 14.7000
13:34 15.7 15.7 100 33 0.8 3.3 1011.1 0.0000 14.7000
13:44 16.2 16 99 111 0.8 3.1 1010.8 0.0000 14.7000
14:10 17.3 16.7 96 270 1.1 3.3 1010.1 0.0000 14.7000
14:24 17.7 16.7 94 351 1.7 4.4 1009.7 0.0000 14.7000
14:35 18 16.7 92 125 1.1 3.1 1009.3 0.0000 14.7000
14:54 18.4 16.7 90 45 1.4 4.7 1008.6 0.0000 14.7000
15:05 18.6 16.8 89 45 0.8 3.1 1008.4 0.0000 14.7000
15:25 18.9 16.7 87 335 1.9 4.7 1007.9 0.0000 14.7000
15:35 19 16.6 86 347 1.4 4.2 1007.5 0.0000 14.7000
15:46 19.1 16.5 85 120 1.4 6.4 1007.1 0.0000 14.7000
16:27 19.7 16.4 81 1.7 3.6 1005.7 0.0000 14.7000
16:38 19.8 16.4 81 1.7 6.9 1005.8 0.0000 14.7000
16:49 19.7 16.7 83 335 1.9 5.3 1005.4 0.3030 15.0000
17:20 17 15 88 315 2.5 4.7 1006.8 12.6250 27.4000
17:30 16.3 14.8 91 228 3.1 5 1006.7 12.8270 27.6000
17:40 15.8 14.5 92 222 5.6 7.8 1007.7 12.9280 27.7000
17:50 15.4 14.1 92 222 5.6 8.3 1008.2 11.7160 27.7000
18:10 15 13.9 93 247 2.5 6.1 1009.3 10.2010 27.7000
18:20 14.8 13.5 92 240 2.5 5.3 1008.2 0.4040 27.8000
18:30 14.6 13.1 91 258 2.8 5.6 1008.4 0.2020 27.8000
18:40 14.3 12.9 91 331 2.8 5.3 1009.7 0.1010 27.8000
18:50 14 12.4 90 334 3.9 7.2 1010.3 0.1010 27.8000
19:00 13.6 11.7 88 328 3.6 6.9 1010.4 0.1010 27.8000
19:20 13.2 11.4 89 324 3.3 8.1 1010.8 0.0000 27.8000
19:30 12.9 11.1 89 322 3.1 5.8 1011.1 0.0000 27.8000
19:45 12.6 10.7 88 318 3.1 8.9 1012.7 0.0000 27.8000
19:55 12.4 10.3 87 327 3.3 6.4 1012.8 0.0000 27.8000
20:05 12.2 10.3 88 333 3.1 7.2 1012.8 0.1010 27.9000
20:15 12 9.7 86 319 3.6 7.2 1013.5 0.2020 28.0000
20:25 11.7 9.3 85 318 3.1 5.6 1014.1 0.2020 28.0000
20:35 11.4 9 85 322 3.3 6.7 1015.1 0.2020 28.0000
20:45 11.1 8.5 84 313 3.3 8.1 1015.5 0.2020 28.0000
20:55 10.9 8.3 84 324 3.6 8.6 1016.1 0.1010 28.0000
21:05 10.8 8.4 85 337 3.6 6.9 1017 0.1010 28.0000
21:15 10.7 8.6 87 324 1.9 4.7 1018 0.0000 28.0000
21:25 10.6 8.4 86 331 3.1 6.9 1018.4 0.0000 28.0000
21:35 10.5 8.3 86 324 2.5 6.1 1018.9 0.0000 28.0000
21:45 10.3 8.1 86 328 1.9 3.9 1019.1 0.0000 28.0000
21:55 10.1 7.7 85 326 1.9 3.9 1019.3 0.0000 28.0000
22:05 10 7.6 85 319 2.2 4.4 1019.4 0.0000 28.0000
22:15 9.9 7.7 86 315 1.7 3.6 1019.9 0.0000 28.0000
22:30 9.7 7.3 85 305 1.9 4.4 1020.4 0.0000 28.0000
22:40 9.5 6.8 83 286 1.4 3.6 1020.9 0.0000 28.0000
22:50 9.4 6.8 84 230 0.8 2.2 1021.2 0.0000 28.0000
23:00 9.4 6.8 84 305 0.8 2.2 1021.8 0.0000 28.0000
23:10 9.3 6.9 85 255 0.8 1.7 1022.5 0.0000 28.0000
23:20 9.2 6.8 85 287 1.7 3.9 1022.8 0.0000 28.0000
23:30 9.2 6.6 84 302 1.1 3.1 1023.1 0.0000 28.0000
23:40 9.1 6.5 84 260 1.4 3.6 1023.3 0.0000 28.0000
23:50 9 6.6 85 261 1.1 2.8 1023.6 0.0000 28.0000

DAY STATISTIC

2018-09-23
TEMPERATURE
AVERAGE
12.3
HIGH
19.8
16:38
LOW
9.0
23:50
PRESSURE
AVERAGE
1015.9
HIGH
1023.6
23:50
LOW
1005.4
16:49
DEWPOINT
AVERAGE
10.7
HIGH
16.8
15:05
LOW
6.5
23:40
HUMIDITY
AVERAGE
90
HIGH
100
13:14
LOW
81
16:27
WIND SPEED
AVERAGE
1.3
HIGH
5.6
17:40
WIND GUST
AVERAGE
3.0
HIGH
8.9
19:45
WIND DIRECTION
PREVAILING
NW
27.4%
N
11.3
NE
12.3
E
8.5
SE
6.6
S
13.2
SW
10.4
W
7.5
NW
27.4
PRECIPITATION
RAIN HOUR
12.9
RAIN DAY
28.0
TEMPERATURE (°C)
LOW
9.0
HIGH
19.8
AVERAGE
12.3
PRESSURE (hpa)
LOW
1005.4
HIGH
1023.6
AVERAGE
1015.9
DEVICE